sensor_id;sensor_type;location;lat;lon;timestamp;P1;durP1;ratioP1;P2;durP2;ratioP2
71423;SDS011;59240;51.370;-0.486;2022-12-18T00:01:15;34.88;;;11.48;;
71423;SDS011;59240;51.370;-0.486;2022-12-18T00:03:47;38.55;;;11.25;;
71423;SDS011;59240;51.370;-0.486;2022-12-18T00:06:14;35.80;;;11.15;;
71423;SDS011;59240;51.370;-0.486;2022-12-18T00:08:42;36.60;;;10.73;;
71423;SDS011;59240;51.370;-0.486;2022-12-18T00:11:11;35.50;;;10.57;;
71423;SDS011;59240;51.370;-0.486;2022-12-18T00:13:40;36.55;;;11.57;;
71423;SDS011;59240;51.370;-0.486;2022-12-18T00:16:08;40.40;;;11.70;;
71423;SDS011;59240;51.370;-0.486;2022-12-18T00:18:38;34.13;;;10.63;;
71423;SDS011;59240;51.370;-0.486;2022-12-18T00:21:07;32.33;;;10.82;;
71423;SDS011;59240;51.370;-0.486;2022-12-18T00:23:34;37.33;;;12.27;;
71423;SDS011;59240;51.370;-0.486;2022-12-18T00:26:04;37.08;;;11.32;;
71423;SDS011;59240;51.370;-0.486;2022-12-18T00:28:32;36.67;;;10.45;;
71423;SDS011;59240;51.370;-0.486;2022-12-18T00:31:03;32.97;;;10.95;;
71423;SDS011;59240;51.370;-0.486;2022-12-18T00:33:32;33.55;;;10.32;;
71423;SDS011;59240;51.370;-0.486;2022-12-18T00:36:04;37.07;;;10.40;;
71423;SDS011;59240;51.370;-0.486;2022-12-18T00:38:32;35.78;;;11.70;;
71423;SDS011;59240;51.370;-0.486;2022-12-18T00:40:59;41.13;;;11.20;;
71423;SDS011;59240;51.370;-0.486;2022-12-18T00:43:26;40.45;;;11.93;;
71423;SDS011;59240;51.370;-0.486;2022-12-18T00:45:53;36.80;;;10.57;;
71423;SDS011;59240;51.370;-0.486;2022-12-18T00:48:19;33.40;;;10.23;;
71423;SDS011;59240;51.370;-0.486;2022-12-18T00:50:49;32.22;;;10.35;;
71423;SDS011;59240;51.370;-0.486;2022-12-18T00:53:16;41.50;;;10.63;;
71423;SDS011;59240;51.370;-0.486;2022-12-18T00:55:44;39.95;;;11.20;;
71423;SDS011;59240;51.370;-0.486;2022-12-18T00:58:11;44.33;;;11.98;;
71423;SDS011;59240;51.370;-0.486;2022-12-18T01:00:38;32.87;;;10.07;;
71423;SDS011;59240;51.370;-0.486;2022-12-18T01:03:06;40.72;;;10.57;;
71423;SDS011;59240;51.370;-0.486;2022-12-18T01:05:38;34.80;;;10.60;;
71423;SDS011;59240;51.370;-0.486;2022-12-18T01:08:06;39.78;;;10.60;;
71423;SDS011;59240;51.370;-0.486;2022-12-18T01:10:32;34.10;;;9.63;;
71423;SDS011;59240;51.370;-0.486;2022-12-18T01:12:59;33.50;;;10.70;;
71423;SDS011;59240;51.370;-0.486;2022-12-18T01:15:25;37.75;;;10.60;;
71423;SDS011;59240;51.370;-0.486;2022-12-18T01:17:52;38.08;;;11.05;;
71423;SDS011;59240;51.370;-0.486;2022-12-18T01:20:20;38.35;;;11.48;;
71423;SDS011;59240;51.370;-0.486;2022-12-18T01:22:46;37.55;;;10.57;;
71423;SDS011;59240;51.370;-0.486;2022-12-18T01:25:13;40.37;;;10.47;;
71423;SDS011;59240;51.370;-0.486;2022-12-18T01:27:39;37.22;;;11.18;;
71423;SDS011;59240;51.370;-0.486;2022-12-18T01:30:06;39.38;;;10.70;;
71423;SDS011;59240;51.370;-0.486;2022-12-18T01:32:33;37.08;;;10.52;;
71423;SDS011;59240;51.370;-0.486;2022-12-18T01:34:59;40.60;;;11.90;;
71423;SDS011;59240;51.370;-0.486;2022-12-18T01:37:26;34.97;;;10.90;;
71423;SDS011;59240;51.370;-0.486;2022-12-18T01:39:53;37.53;;;11.07;;
71423;SDS011;59240;51.370;-0.486;2022-12-18T01:42:20;43.25;;;11.50;;
71423;SDS011;59240;51.370;-0.486;2022-12-18T01:44:53;33.42;;;10.15;;
71423;SDS011;59240;51.370;-0.486;2022-12-18T01:47:47;35.67;;;10.25;;
71423;SDS011;59240;51.370;-0.486;2022-12-18T01:50:16;38.40;;;11.40;;
71423;SDS011;59240;51.370;-0.486;2022-12-18T01:52:52;36.78;;;10.15;;
71423;SDS011;59240;51.370;-0.486;2022-12-18T01:55:22;40.70;;;11.10;;
71423;SDS011;59240;51.370;-0.486;2022-12-18T01:57:52;38.17;;;11.35;;
71423;SDS011;59240;51.370;-0.486;2022-12-18T02:00:21;43.67;;;11.77;;
71423;SDS011;59240;51.370;-0.486;2022-12-18T02:02:49;40.83;;;11.77;;
71423;SDS011;59240;51.370;-0.486;2022-12-18T02:05:16;42.20;;;12.95;;
71423;SDS011;59240;51.370;-0.486;2022-12-18T02:10:37;40.72;;;12.02;;
71423;SDS011;59240;51.370;-0.486;2022-12-18T02:13:12;37.17;;;11.15;;
71423;SDS011;59240;51.370;-0.486;2022-12-18T02:18:32;38.65;;;12.75;;
71423;SDS011;59240;51.370;-0.486;2022-12-18T02:26:26;39.08;;;12.98;;
71423;SDS011;59240;51.370;-0.486;2022-12-18T02:29:04;37.07;;;11.90;;
71423;SDS011;59240;51.370;-0.486;2022-12-18T02:31:36;38.63;;;11.57;;
71423;SDS011;59240;51.370;-0.486;2022-12-18T02:34:09;48.05;;;13.70;;
71423;SDS011;59240;51.370;-0.486;2022-12-18T02:36:38;33.95;;;11.88;;
71423;SDS011;59240;51.370;-0.486;2022-12-18T02:39:09;38.28;;;12.25;;
71423;SDS011;59240;51.370;-0.486;2022-12-18T02:41:37;34.20;;;11.80;;
71423;SDS011;59240;51.370;-0.486;2022-12-18T02:44:09;39.20;;;10.95;;
71423;SDS011;59240;51.370;-0.486;2022-12-18T02:46:48;44.65;;;11.80;;
71423;SDS011;59240;51.370;-0.486;2022-12-18T02:57:35;38.80;;;10.95;;
71423;SDS011;59240;51.370;-0.486;2022-12-18T03:03:16;36.65;;;10.45;;
71423;SDS011;59240;51.370;-0.486;2022-12-18T03:06:18;37.22;;;9.00;;
71423;SDS011;59240;51.370;-0.486;2022-12-18T03:08:51;32.40;;;9.27;;
71423;SDS011;59240;51.370;-0.486;2022-12-18T03:11:25;31.67;;;10.02;;
71423;SDS011;59240;51.370;-0.486;2022-12-18T03:14:21;27.90;;;8.85;;
71423;SDS011;59240;51.370;-0.486;2022-12-18T03:16:53;37.25;;;9.77;;
71423;SDS011;59240;51.370;-0.486;2022-12-18T03:19:25;31.48;;;9.73;;
71423;SDS011;59240;51.370;-0.486;2022-12-18T03:21:56;29.23;;;9.50;;
71423;SDS011;59240;51.370;-0.486;2022-12-18T03:24:24;35.33;;;10.55;;
71423;SDS011;59240;51.370;-0.486;2022-12-18T03:26:54;32.05;;;9.05;;
71423;SDS011;59240;51.370;-0.486;2022-12-18T03:29:27;37.22;;;10.07;;
71423;SDS011;59240;51.370;-0.486;2022-12-18T03:32:08;27.05;;;8.57;;
71423;SDS011;59240;51.370;-0.486;2022-12-18T03:34:38;30.13;;;8.83;;
71423;SDS011;59240;51.370;-0.486;2022-12-18T03:37:08;28.33;;;9.13;;
71423;SDS011;59240;51.370;-0.486;2022-12-18T03:39:35;28.75;;;8.63;;
71423;SDS011;59240;51.370;-0.486;2022-12-18T03:42:07;27.98;;;8.15;;
71423;SDS011;59240;51.370;-0.486;2022-12-18T03:45:02;28.65;;;8.65;;
71423;SDS011;59240;51.370;-0.486;2022-12-18T03:50:18;25.75;;;8.60;;
71423;SDS011;59240;51.370;-0.486;2022-12-18T03:52:57;24.73;;;7.85;;
71423;SDS011;59240;51.370;-0.486;2022-12-18T03:55:26;27.48;;;8.35;;
71423;SDS011;59240;51.370;-0.486;2022-12-18T03:57:57;28.20;;;7.70;;
71423;SDS011;59240;51.370;-0.486;2022-12-18T04:00:25;26.50;;;7.80;;
71423;SDS011;59240;51.370;-0.486;2022-12-18T04:02:53;30.95;;;8.80;;
71423;SDS011;59240;51.370;-0.486;2022-12-18T04:05:22;27.02;;;7.57;;
71423;SDS011;59240;51.370;-0.486;2022-12-18T04:07:51;27.02;;;8.27;;
71423;SDS011;59240;51.370;-0.486;2022-12-18T04:10:20;21.10;;;7.95;;
71423;SDS011;59240;51.370;-0.486;2022-12-18T04:12:46;28.27;;;8.27;;
71423;SDS011;59240;51.370;-0.486;2022-12-18T04:15:13;28.02;;;8.57;;
71423;SDS011;59240;51.370;-0.486;2022-12-18T04:17:43;23.75;;;8.18;;
71423;SDS011;59240;51.370;-0.486;2022-12-18T04:20:14;25.70;;;8.10;;
71423;SDS011;59240;51.370;-0.486;2022-12-18T04:22:42;26.20;;;7.00;;
71423;SDS011;59240;51.370;-0.486;2022-12-18T04:25:08;23.83;;;7.83;;
71423;SDS011;59240;51.370;-0.486;2022-12-18T04:27:35;26.30;;;7.03;;
71423;SDS011;59240;51.370;-0.486;2022-12-18T04:30:01;24.40;;;7.60;;
71423;SDS011;59240;51.370;-0.486;2022-12-18T04:32:28;21.50;;;7.40;;
71423;SDS011;59240;51.370;-0.486;2022-12-18T04:34:55;26.92;;;8.32;;
71423;SDS011;59240;51.370;-0.486;2022-12-18T04:37:21;23.30;;;8.10;;
71423;SDS011;59240;51.370;-0.486;2022-12-18T04:39:48;27.20;;;7.90;;
71423;SDS011;59240;51.370;-0.486;2022-12-18T04:42:14;29.15;;;9.10;;
71423;SDS011;59240;51.370;-0.486;2022-12-18T04:44:41;41.47;;;12.25;;
71423;SDS011;59240;51.370;-0.486;2022-12-18T04:47:07;32.03;;;10.93;;
71423;SDS011;59240;51.370;-0.486;2022-12-18T04:49:34;31.90;;;9.03;;
71423;SDS011;59240;51.370;-0.486;2022-12-18T04:52:00;32.30;;;9.68;;
71423;SDS011;59240;51.370;-0.486;2022-12-18T04:54:27;33.85;;;9.10;;
71423;SDS011;59240;51.370;-0.486;2022-12-18T04:56:53;29.23;;;8.65;;
71423;SDS011;59240;51.370;-0.486;2022-12-18T04:59:20;27.10;;;8.43;;
71423;SDS011;59240;51.370;-0.486;2022-12-18T05:01:47;26.87;;;8.47;;
71423;SDS011;59240;51.370;-0.486;2022-12-18T05:04:13;27.80;;;8.60;;
71423;SDS011;59240;51.370;-0.486;2022-12-18T05:06:40;24.90;;;7.93;;
71423;SDS011;59240;51.370;-0.486;2022-12-18T05:09:07;23.95;;;8.57;;
71423;SDS011;59240;51.370;-0.486;2022-12-18T05:11:35;26.55;;;7.65;;
71423;SDS011;59240;51.370;-0.486;2022-12-18T05:14:02;26.87;;;8.00;;
71423;SDS011;59240;51.370;-0.486;2022-12-18T05:16:29;25.40;;;7.78;;
71423;SDS011;59240;51.370;-0.486;2022-12-18T05:18:55;19.15;;;6.93;;
71423;SDS011;59240;51.370;-0.486;2022-12-18T05:21:22;24.25;;;7.03;;
71423;SDS011;59240;51.370;-0.486;2022-12-18T05:23:48;22.45;;;7.88;;
71423;SDS011;59240;51.370;-0.486;2022-12-18T05:26:16;25.77;;;8.07;;
71423;SDS011;59240;51.370;-0.486;2022-12-18T05:28:44;23.20;;;6.03;;
71423;SDS011;59240;51.370;-0.486;2022-12-18T05:31:12;20.30;;;6.03;;
71423;SDS011;59240;51.370;-0.486;2022-12-18T05:33:39;22.17;;;6.55;;
71423;SDS011;59240;51.370;-0.486;2022-12-18T05:36:07;22.27;;;6.20;;
71423;SDS011;59240;51.370;-0.486;2022-12-18T05:38:35;24.47;;;7.40;;
71423;SDS011;59240;51.370;-0.486;2022-12-18T05:41:03;23.27;;;6.82;;
71423;SDS011;59240;51.370;-0.486;2022-12-18T05:43:31;19.20;;;6.53;;
71423;SDS011;59240;51.370;-0.486;2022-12-18T05:46:03;19.23;;;5.68;;
71423;SDS011;59240;51.370;-0.486;2022-12-18T05:48:33;21.38;;;5.78;;
71423;SDS011;59240;51.370;-0.486;2022-12-18T05:51:04;21.00;;;6.03;;
71423;SDS011;59240;51.370;-0.486;2022-12-18T05:53:32;25.98;;;7.47;;
71423;SDS011;59240;51.370;-0.486;2022-12-18T05:56:05;20.33;;;6.72;;
71423;SDS011;59240;51.370;-0.486;2022-12-18T05:58:34;20.52;;;6.10;;
71423;SDS011;59240;51.370;-0.486;2022-12-18T06:01:08;23.02;;;7.25;;
71423;SDS011;59240;51.370;-0.486;2022-12-18T06:03:40;20.27;;;5.87;;
71423;SDS011;59240;51.370;-0.486;2022-12-18T06:06:14;18.30;;;5.68;;
71423;SDS011;59240;51.370;-0.486;2022-12-18T06:08:45;23.52;;;6.00;;
71423;SDS011;59240;51.370;-0.486;2022-12-18T06:11:12;22.05;;;6.55;;
71423;SDS011;59240;51.370;-0.486;2022-12-18T06:13:41;16.70;;;5.63;;
71423;SDS011;59240;51.370;-0.486;2022-12-18T06:16:08;21.00;;;6.87;;
71423;SDS011;59240;51.370;-0.486;2022-12-18T06:18:35;21.67;;;6.55;;
71423;SDS011;59240;51.370;-0.486;2022-12-18T06:21:01;16.25;;;5.50;;
71423;SDS011;59240;51.370;-0.486;2022-12-18T06:23:28;14.95;;;4.45;;
71423;SDS011;59240;51.370;-0.486;2022-12-18T06:25:54;18.80;;;6.03;;
71423;SDS011;59240;51.370;-0.486;2022-12-18T06:28:21;21.03;;;5.87;;
71423;SDS011;59240;51.370;-0.486;2022-12-18T06:30:47;23.52;;;6.57;;
71423;SDS011;59240;51.370;-0.486;2022-12-18T06:33:15;20.45;;;6.25;;
71423;SDS011;59240;51.370;-0.486;2022-12-18T06:35:42;22.52;;;6.80;;
71423;SDS011;59240;51.370;-0.486;2022-12-18T06:38:09;19.00;;;6.22;;
71423;SDS011;59240;51.370;-0.486;2022-12-18T06:40:36;16.77;;;5.23;;
71423;SDS011;59240;51.370;-0.486;2022-12-18T06:43:04;15.55;;;5.70;;
71423;SDS011;59240;51.370;-0.486;2022-12-18T06:45:30;16.55;;;5.28;;
71423;SDS011;59240;51.370;-0.486;2022-12-18T06:47:57;22.40;;;6.82;;
71423;SDS011;59240;51.370;-0.486;2022-12-18T06:50:24;15.02;;;5.20;;
71423;SDS011;59240;51.370;-0.486;2022-12-18T06:52:50;17.97;;;5.10;;
71423;SDS011;59240;51.370;-0.486;2022-12-18T06:55:17;23.63;;;6.03;;
71423;SDS011;59240;51.370;-0.486;2022-12-18T06:57:44;16.38;;;5.18;;
71423;SDS011;59240;51.370;-0.486;2022-12-18T07:00:10;19.10;;;5.05;;
71423;SDS011;59240;51.370;-0.486;2022-12-18T07:02:38;17.02;;;5.53;;
71423;SDS011;59240;51.370;-0.486;2022-12-18T07:05:04;16.30;;;5.53;;
71423;SDS011;59240;51.370;-0.486;2022-12-18T07:07:36;16.10;;;4.82;;
71423;SDS011;59240;51.370;-0.486;2022-12-18T07:10:03;14.57;;;5.25;;
71423;SDS011;59240;51.370;-0.486;2022-12-18T07:12:30;14.80;;;5.10;;
71423;SDS011;59240;51.370;-0.486;2022-12-18T07:14:56;16.85;;;5.65;;
71423;SDS011;59240;51.370;-0.486;2022-12-18T07:17:23;19.93;;;6.27;;
71423;SDS011;59240;51.370;-0.486;2022-12-18T07:19:49;18.27;;;6.05;;
71423;SDS011;59240;51.370;-0.486;2022-12-18T07:22:16;15.90;;;4.03;;
71423;SDS011;59240;51.370;-0.486;2022-12-18T07:24:43;18.65;;;5.75;;
71423;SDS011;59240;51.370;-0.486;2022-12-18T07:27:09;14.45;;;4.82;;
71423;SDS011;59240;51.370;-0.486;2022-12-18T07:29:36;16.47;;;5.80;;
71423;SDS011;59240;51.370;-0.486;2022-12-18T07:32:03;16.25;;;5.88;;
71423;SDS011;59240;51.370;-0.486;2022-12-18T07:34:30;15.90;;;5.13;;
71423;SDS011;59240;51.370;-0.486;2022-12-18T07:36:56;18.33;;;5.47;;
71423;SDS011;59240;51.370;-0.486;2022-12-18T07:39:23;19.83;;;6.22;;
71423;SDS011;59240;51.370;-0.486;2022-12-18T07:41:49;19.23;;;6.33;;
71423;SDS011;59240;51.370;-0.486;2022-12-18T07:44:36;18.33;;;5.93;;
71423;SDS011;59240;51.370;-0.486;2022-12-18T07:47:03;16.67;;;5.35;;
71423;SDS011;59240;51.370;-0.486;2022-12-18T07:49:36;17.83;;;5.57;;
71423;SDS011;59240;51.370;-0.486;2022-12-18T07:52:03;18.00;;;5.82;;
71423;SDS011;59240;51.370;-0.486;2022-12-18T07:54:30;17.83;;;5.83;;
71423;SDS011;59240;51.370;-0.486;2022-12-18T07:56:56;17.10;;;5.35;;
71423;SDS011;59240;51.370;-0.486;2022-12-18T07:59:22;22.98;;;6.82;;
71423;SDS011;59240;51.370;-0.486;2022-12-18T08:01:49;19.73;;;5.85;;
71423;SDS011;59240;51.370;-0.486;2022-12-18T08:04:16;19.33;;;5.20;;
71423;SDS011;59240;51.370;-0.486;2022-12-18T08:06:42;22.00;;;6.50;;
71423;SDS011;59240;51.370;-0.486;2022-12-18T08:09:13;21.85;;;6.43;;
71423;SDS011;59240;51.370;-0.486;2022-12-18T08:11:40;19.10;;;6.97;;
71423;SDS011;59240;51.370;-0.486;2022-12-18T08:14:06;17.70;;;6.35;;
71423;SDS011;59240;51.370;-0.486;2022-12-18T08:16:33;20.40;;;7.00;;
71423;SDS011;59240;51.370;-0.486;2022-12-18T08:18:59;18.03;;;5.47;;
71423;SDS011;59240;51.370;-0.486;2022-12-18T08:21:27;13.80;;;5.60;;
71423;SDS011;59240;51.370;-0.486;2022-12-18T08:23:56;18.58;;;7.07;;
71423;SDS011;59240;51.370;-0.486;2022-12-18T08:26:25;19.73;;;7.13;;
71423;SDS011;59240;51.370;-0.486;2022-12-18T08:28:55;18.25;;;6.45;;
71423;SDS011;59240;51.370;-0.486;2022-12-18T08:31:22;21.77;;;7.17;;
71423;SDS011;59240;51.370;-0.486;2022-12-18T08:33:50;18.60;;;7.35;;
71423;SDS011;59240;51.370;-0.486;2022-12-18T08:36:18;19.08;;;6.43;;
71423;SDS011;59240;51.370;-0.486;2022-12-18T08:38:46;19.67;;;6.45;;
71423;SDS011;59240;51.370;-0.486;2022-12-18T08:41:14;18.90;;;6.60;;
71423;SDS011;59240;51.370;-0.486;2022-12-18T08:43:42;28.27;;;8.60;;
71423;SDS011;59240;51.370;-0.486;2022-12-18T08:46:31;21.75;;;7.43;;
71423;SDS011;59240;51.370;-0.486;2022-12-18T08:49:00;21.52;;;7.15;;
71423;SDS011;59240;51.370;-0.486;2022-12-18T08:51:28;25.20;;;7.40;;
71423;SDS011;59240;51.370;-0.486;2022-12-18T08:53:54;27.70;;;11.70;;
71423;SDS011;59240;51.370;-0.486;2022-12-18T08:56:21;31.47;;;13.10;;
71423;SDS011;59240;51.370;-0.486;2022-12-18T08:58:50;37.25;;;13.45;;
71423;SDS011;59240;51.370;-0.486;2022-12-18T09:01:18;32.30;;;13.32;;
71423;SDS011;59240;51.370;-0.486;2022-12-18T09:03:46;37.10;;;13.48;;
71423;SDS011;59240;51.370;-0.486;2022-12-18T09:06:14;36.92;;;16.58;;
71423;SDS011;59240;51.370;-0.486;2022-12-18T09:08:42;28.07;;;12.07;;
71423;SDS011;59240;51.370;-0.486;2022-12-18T09:11:13;23.27;;;7.70;;
71423;SDS011;59240;51.370;-0.486;2022-12-18T09:13:46;21.77;;;7.30;;
71423;SDS011;59240;51.370;-0.486;2022-12-18T09:16:13;24.77;;;8.23;;
71423;SDS011;59240;51.370;-0.486;2022-12-18T09:18:40;21.60;;;7.55;;
71423;SDS011;59240;51.370;-0.486;2022-12-18T09:21:11;22.20;;;7.80;;
71423;SDS011;59240;51.370;-0.486;2022-12-18T09:23:39;32.40;;;12.48;;
71423;SDS011;59240;51.370;-0.486;2022-12-18T09:26:06;26.00;;;9.00;;
71423;SDS011;59240;51.370;-0.486;2022-12-18T09:28:33;21.48;;;7.82;;
71423;SDS011;59240;51.370;-0.486;2022-12-18T09:31:03;22.55;;;7.53;;
71423;SDS011;59240;51.370;-0.486;2022-12-18T09:33:30;22.57;;;7.73;;
71423;SDS011;59240;51.370;-0.486;2022-12-18T09:35:57;17.45;;;5.82;;
71423;SDS011;59240;51.370;-0.486;2022-12-18T09:38:24;27.60;;;10.45;;
71423;SDS011;59240;51.370;-0.486;2022-12-18T09:40:54;32.55;;;11.82;;
71423;SDS011;59240;51.370;-0.486;2022-12-18T09:46:11;26.63;;;9.00;;
71423;SDS011;59240;51.370;-0.486;2022-12-18T09:51:46;21.73;;;7.07;;
71423;SDS011;59240;51.370;-0.486;2022-12-18T09:54:20;25.65;;;9.48;;
71423;SDS011;59240;51.370;-0.486;2022-12-18T09:56:53;24.92;;;8.15;;
71423;SDS011;59240;51.370;-0.486;2022-12-18T09:59:27;23.93;;;7.60;;
71423;SDS011;59240;51.370;-0.486;2022-12-18T10:01:59;23.35;;;7.68;;
71423;SDS011;59240;51.370;-0.486;2022-12-18T10:04:26;20.83;;;7.60;;
71423;SDS011;59240;51.370;-0.486;2022-12-18T10:07:01;21.95;;;7.47;;
71423;SDS011;59240;51.370;-0.486;2022-12-18T10:12:28;22.47;;;7.37;;
71423;SDS011;59240;51.370;-0.486;2022-12-18T10:17:43;23.75;;;8.15;;
71423;SDS011;59240;51.370;-0.486;2022-12-18T10:20:23;23.45;;;8.05;;
71423;SDS011;59240;51.370;-0.486;2022-12-18T10:25:29;22.90;;;7.60;;
71423;SDS011;59240;51.370;-0.486;2022-12-18T10:28:12;23.05;;;8.52;;
71423;SDS011;59240;51.370;-0.486;2022-12-18T10:30:40;25.02;;;8.10;;
71423;SDS011;59240;51.370;-0.486;2022-12-18T10:33:12;22.83;;;6.65;;
71423;SDS011;59240;51.370;-0.486;2022-12-18T10:35:42;24.08;;;7.63;;
71423;SDS011;59240;51.370;-0.486;2022-12-18T10:43:24;20.13;;;7.45;;
71423;SDS011;59240;51.370;-0.486;2022-12-18T10:46:13;22.02;;;7.35;;
71423;SDS011;59240;51.370;-0.486;2022-12-18T10:51:28;26.80;;;8.40;;
71423;SDS011;59240;51.370;-0.486;2022-12-18T10:56:39;22.27;;;7.97;;
71423;SDS011;59240;51.370;-0.486;2022-12-18T10:59:07;29.05;;;8.77;;
71423;SDS011;59240;51.370;-0.486;2022-12-18T11:04:23;28.63;;;9.33;;
71423;SDS011;59240;51.370;-0.486;2022-12-18T11:09:30;21.05;;;8.02;;
71423;SDS011;59240;51.370;-0.486;2022-12-18T11:11:59;25.98;;;9.05;;
71423;SDS011;59240;51.370;-0.486;2022-12-18T11:15:02;29.35;;;9.55;;
71423;SDS011;59240;51.370;-0.486;2022-12-18T11:17:29;25.10;;;9.50;;
71423;SDS011;59240;51.370;-0.486;2022-12-18T11:20:05;25.92;;;8.88;;
71423;SDS011;59240;51.370;-0.486;2022-12-18T11:22:54;24.17;;;8.38;;
71423;SDS011;59240;51.370;-0.486;2022-12-18T11:25:23;24.83;;;10.57;;
71423;SDS011;59240;51.370;-0.486;2022-12-18T11:28:00;27.75;;;9.85;;
71423;SDS011;59240;51.370;-0.486;2022-12-18T11:38:26;31.10;;;11.10;;
71423;SDS011;59240;51.370;-0.486;2022-12-18T11:43:31;24.17;;;10.20;;
71423;SDS011;59240;51.370;-0.486;2022-12-18T11:46:05;27.08;;;10.35;;
71423;SDS011;59240;51.370;-0.486;2022-12-18T11:49:33;24.95;;;9.68;;
71423;SDS011;59240;51.370;-0.486;2022-12-18T11:51:46;24.80;;;9.27;;
71423;SDS011;59240;51.370;-0.486;2022-12-18T11:54:26;23.42;;;9.90;;
71423;SDS011;59240;51.370;-0.486;2022-12-18T11:56:57;25.30;;;9.20;;
71423;SDS011;59240;51.370;-0.486;2022-12-18T11:59:51;31.08;;;10.20;;
71423;SDS011;59240;51.370;-0.486;2022-12-18T12:05:18;24.42;;;8.13;;
71423;SDS011;59240;51.370;-0.486;2022-12-18T12:08:17;28.25;;;10.13;;
71423;SDS011;59240;51.370;-0.486;2022-12-18T12:11:29;24.37;;;7.77;;
71423;SDS011;59240;51.370;-0.486;2022-12-18T12:16:48;25.77;;;8.40;;
71423;SDS011;59240;51.370;-0.486;2022-12-18T12:21:59;27.00;;;9.98;;
71423;SDS011;59240;51.370;-0.486;2022-12-18T12:27:33;22.65;;;10.02;;
71423;SDS011;59240;51.370;-0.486;2022-12-18T12:30:18;22.00;;;9.15;;
71423;SDS011;59240;51.370;-0.486;2022-12-18T12:33:22;23.98;;;9.65;;
71423;SDS011;59240;51.370;-0.486;2022-12-18T12:38:52;29.80;;;10.07;;
71423;SDS011;59240;51.370;-0.486;2022-12-18T12:41:26;23.63;;;9.85;;
71423;SDS011;59240;51.370;-0.486;2022-12-18T12:44:20;28.83;;;9.70;;
71423;SDS011;59240;51.370;-0.486;2022-12-18T12:46:52;26.08;;;10.05;;
71423;SDS011;59240;51.370;-0.486;2022-12-18T12:49:26;24.10;;;9.25;;
71423;SDS011;59240;51.370;-0.486;2022-12-18T12:51:58;27.53;;;9.37;;
71423;SDS011;59240;51.370;-0.486;2022-12-18T12:54:31;23.73;;;8.80;;
71423;SDS011;59240;51.370;-0.486;2022-12-18T12:57:15;26.48;;;10.43;;
71423;SDS011;59240;51.370;-0.486;2022-12-18T13:02:33;30.60;;;10.10;;
71423;SDS011;59240;51.370;-0.486;2022-12-18T13:05:22;21.73;;;8.77;;
71423;SDS011;59240;51.370;-0.486;2022-12-18T13:07:54;27.48;;;9.48;;
71423;SDS011;59240;51.370;-0.486;2022-12-18T13:10:26;24.73;;;8.82;;
71423;SDS011;59240;51.370;-0.486;2022-12-18T13:18:23;18.90;;;7.50;;
71423;SDS011;59240;51.370;-0.486;2022-12-18T13:21:02;25.85;;;9.10;;
71423;SDS011;59240;51.370;-0.486;2022-12-18T13:23:39;23.08;;;8.18;;
71423;SDS011;59240;51.370;-0.486;2022-12-18T13:31:14;19.70;;;8.43;;
71423;SDS011;59240;51.370;-0.486;2022-12-18T13:34:17;21.67;;;8.68;;
71423;SDS011;59240;51.370;-0.486;2022-12-18T13:36:53;23.20;;;8.70;;
71423;SDS011;59240;51.370;-0.486;2022-12-18T13:39:31;21.55;;;8.43;;
71423;SDS011;59240;51.370;-0.486;2022-12-18T13:44:38;27.77;;;10.43;;
71423;SDS011;59240;51.370;-0.486;2022-12-18T13:53:01;16.30;;;5.97;;
71423;SDS011;59240;51.370;-0.486;2022-12-18T13:55:33;19.85;;;7.63;;
71423;SDS011;59240;51.370;-0.486;2022-12-18T13:58:04;18.77;;;7.07;;
71423;SDS011;59240;51.370;-0.486;2022-12-18T14:00:33;19.75;;;7.68;;
71423;SDS011;59240;51.370;-0.486;2022-12-18T14:03:00;20.65;;;7.55;;
71423;SDS011;59240;51.370;-0.486;2022-12-18T14:05:28;17.33;;;7.00;;
71423;SDS011;59240;51.370;-0.486;2022-12-18T14:08:00;22.77;;;7.90;;
71423;SDS011;59240;51.370;-0.486;2022-12-18T14:10:29;14.87;;;6.03;;
71423;SDS011;59240;51.370;-0.486;2022-12-18T14:13:28;14.02;;;5.22;;
71423;SDS011;59240;51.370;-0.486;2022-12-18T14:15:57;18.52;;;6.78;;
71423;SDS011;59240;51.370;-0.486;2022-12-18T14:21:40;18.17;;;6.45;;
71423;SDS011;59240;51.370;-0.486;2022-12-18T14:24:41;16.93;;;6.43;;
71423;SDS011;59240;51.370;-0.486;2022-12-18T14:27:22;18.23;;;6.68;;
71423;SDS011;59240;51.370;-0.486;2022-12-18T14:29:52;17.77;;;6.32;;
71423;SDS011;59240;51.370;-0.486;2022-12-18T14:32:27;18.13;;;6.63;;
71423;SDS011;59240;51.370;-0.486;2022-12-18T14:34:59;13.85;;;4.95;;
71423;SDS011;59240;51.370;-0.486;2022-12-18T14:37:41;15.13;;;5.63;;
71423;SDS011;59240;51.370;-0.486;2022-12-18T14:49:32;10.57;;;4.55;;
71423;SDS011;59240;51.370;-0.486;2022-12-18T15:19:17;14.90;;;4.03;;
71423;SDS011;59240;51.370;-0.486;2022-12-18T15:22:13;11.25;;;3.63;;
71423;SDS011;59240;51.370;-0.486;2022-12-18T15:32:15;9.13;;;2.80;;
71423;SDS011;59240;51.370;-0.486;2022-12-18T15:39:02;9.60;;;3.53;;
71423;SDS011;59240;51.370;-0.486;2022-12-18T15:41:50;7.70;;;2.67;;
71423;SDS011;59240;51.370;-0.486;2022-12-18T15:44:45;9.95;;;3.03;;
71423;SDS011;59240;51.370;-0.486;2022-12-18T15:47:22;9.47;;;3.27;;
71423;SDS011;59240;51.370;-0.486;2022-12-18T15:50:07;8.65;;;3.15;;
71423;SDS011;59240;51.370;-0.486;2022-12-18T15:52:50;9.30;;;3.08;;
71423;SDS011;59240;51.370;-0.486;2022-12-18T15:55:33;8.57;;;3.20;;
71423;SDS011;59240;51.370;-0.486;2022-12-18T15:58:26;9.18;;;3.80;;
71423;SDS011;59240;51.370;-0.486;2022-12-18T16:01:16;7.03;;;2.70;;
71423;SDS011;59240;51.370;-0.486;2022-12-18T16:03:44;11.57;;;3.47;;
71423;SDS011;59240;51.370;-0.486;2022-12-18T16:06:14;9.40;;;3.78;;
71423;SDS011;59240;51.370;-0.486;2022-12-18T16:09:14;8.07;;;2.65;;
71423;SDS011;59240;51.370;-0.486;2022-12-18T16:11:51;9.07;;;3.50;;
71423;SDS011;59240;51.370;-0.486;2022-12-18T16:14:24;7.70;;;3.00;;
71423;SDS011;59240;51.370;-0.486;2022-12-18T16:16:54;7.20;;;2.60;;
71423;SDS011;59240;51.370;-0.486;2022-12-18T16:19:30;9.05;;;3.20;;
71423;SDS011;59240;51.370;-0.486;2022-12-18T16:22:05;7.53;;;2.00;;
71423;SDS011;59240;51.370;-0.486;2022-12-18T16:24:47;10.43;;;3.60;;
71423;SDS011;59240;51.370;-0.486;2022-12-18T16:27:19;21.20;;;4.50;;
71423;SDS011;59240;51.370;-0.486;2022-12-18T16:29:49;17.45;;;5.47;;
71423;SDS011;59240;51.370;-0.486;2022-12-18T16:32:17;12.68;;;4.13;;
71423;SDS011;59240;51.370;-0.486;2022-12-18T16:34:51;6.82;;;2.65;;
71423;SDS011;59240;51.370;-0.486;2022-12-18T16:37:20;9.57;;;3.20;;
71423;SDS011;59240;51.370;-0.486;2022-12-18T16:39:50;11.23;;;3.33;;
71423;SDS011;59240;51.370;-0.486;2022-12-18T16:42:17;8.35;;;2.80;;
71423;SDS011;59240;51.370;-0.486;2022-12-18T16:44:46;8.57;;;3.25;;
71423;SDS011;59240;51.370;-0.486;2022-12-18T16:47:14;7.88;;;2.83;;
71423;SDS011;59240;51.370;-0.486;2022-12-18T16:49:41;9.55;;;2.78;;
71423;SDS011;59240;51.370;-0.486;2022-12-18T16:52:11;8.30;;;2.80;;
71423;SDS011;59240;51.370;-0.486;2022-12-18T16:54:44;8.65;;;3.17;;
71423;SDS011;59240;51.370;-0.486;2022-12-18T16:57:12;8.98;;;3.20;;
71423;SDS011;59240;51.370;-0.486;2022-12-18T16:59:43;8.30;;;2.67;;
71423;SDS011;59240;51.370;-0.486;2022-12-18T17:02:16;6.65;;;2.08;;
71423;SDS011;59240;51.370;-0.486;2022-12-18T17:04:48;6.60;;;2.13;;
71423;SDS011;59240;51.370;-0.486;2022-12-18T17:07:15;7.10;;;2.47;;
71423;SDS011;59240;51.370;-0.486;2022-12-18T17:09:42;6.07;;;2.00;;
71423;SDS011;59240;51.370;-0.486;2022-12-18T17:12:08;9.18;;;3.33;;
71423;SDS011;59240;51.370;-0.486;2022-12-18T17:14:36;5.85;;;2.10;;
71423;SDS011;59240;51.370;-0.486;2022-12-18T17:17:02;6.43;;;2.10;;